createdAt,value
2022-12-11T00:00:27.632Z,0.44
2022-12-11T00:02:54.995Z,0.44
2022-12-11T00:05:22.252Z,0.47
2022-12-11T00:07:49.476Z,0.31
2022-12-11T00:10:16.856Z,0.28
2022-12-11T00:12:43.939Z,0.43
2022-12-11T00:15:11.721Z,0.49
2022-12-11T00:17:39.225Z,0.48
2022-12-11T00:20:08.057Z,0.30
2022-12-11T00:22:36.004Z,0.43
2022-12-11T00:25:03.320Z,0.50
2022-12-11T00:27:30.512Z,0.37
2022-12-11T00:29:59.779Z,0.34
2022-12-11T00:32:28.555Z,0.22
2022-12-11T00:34:56.002Z,0.24
2022-12-11T00:37:23.339Z,0.31
2022-12-11T00:39:50.586Z,0.26
2022-12-11T00:42:17.687Z,0.34
2022-12-11T00:44:44.856Z,0.36
2022-12-11T00:47:12.773Z,0.41
2022-12-11T00:49:42.900Z,0.42
2022-12-11T00:52:13.689Z,0.42
2022-12-11T00:54:40.912Z,0.21
2022-12-11T00:57:08.052Z,0.26
2022-12-11T00:59:35.320Z,0.29
2022-12-11T01:02:02.523Z,0.34
2022-12-11T01:04:29.635Z,0.36
2022-12-11T01:06:56.858Z,0.43
2022-12-11T01:09:42.432Z,0.33
2022-12-11T01:12:09.637Z,0.39
2022-12-11T01:14:36.870Z,0.37
2022-12-11T01:17:04.358Z,0.25
2022-12-11T01:19:31.606Z,0.31
2022-12-11T01:22:00.709Z,0.23
2022-12-11T01:24:27.931Z,0.19
2022-12-11T01:26:54.986Z,0.22
2022-12-11T01:29:22.269Z,0.17
2022-12-11T01:31:49.356Z,0.21
2022-12-11T01:34:16.647Z,0.23
2022-12-11T01:36:43.859Z,0.25
2022-12-11T01:39:10.961Z,0.34
2022-12-11T01:41:38.171Z,0.30
2022-12-11T01:44:30.723Z,0.33
2022-12-11T01:46:58.649Z,0.30
2022-12-11T01:49:27.650Z,0.29
2022-12-11T01:52:11.916Z,0.33
2022-12-11T01:54:39.271Z,0.34
2022-12-11T01:57:08.635Z,0.28
2022-12-11T01:59:38.227Z,0.29
2022-12-11T02:02:10.704Z,0.13
2022-12-11T02:04:40.171Z,-0.01
2022-12-11T02:07:07.457Z,0.10
2022-12-11T02:09:36.220Z,0.17
2022-12-11T02:12:30.270Z,0.16
2022-12-11T02:15:17.292Z,0.26
2022-12-11T02:18:02.840Z,0.14
2022-12-11T02:20:36.119Z,0.18
2022-12-11T02:23:15.386Z,0.21
2022-12-11T02:26:21.166Z,0.15
2022-12-11T02:28:55.966Z,0.07
2022-12-11T02:31:38.926Z,0.15
2022-12-11T02:34:39.289Z,0.16
2022-12-11T02:37:12.463Z,0.19
2022-12-11T02:39:40.899Z,0.16
2022-12-11T02:42:09.006Z,0.20
2022-12-11T02:44:37.936Z,0.18
2022-12-11T02:47:08.804Z,0.18
2022-12-11T02:49:36.109Z,0.01
2022-12-11T02:52:06.299Z,-0.01
2022-12-11T02:54:35.613Z,-0.06
2022-12-11T02:57:28.476Z,0.01
2022-12-11T02:59:55.726Z,0.07
2022-12-11T03:02:23.082Z,-0.03
2022-12-11T03:04:50.221Z,0.03
2022-12-11T03:07:23.672Z,-0.01
2022-12-11T03:09:52.043Z,0.25
2022-12-11T03:12:40.788Z,0.11
2022-12-11T03:15:11.415Z,0.17
2022-12-11T03:17:58.553Z,0.15
2022-12-11T03:20:46.357Z,0.05
2022-12-11T03:23:17.771Z,0.12
2022-12-11T03:25:47.781Z,0.11
2022-12-11T03:28:25.576Z,0.19
2022-12-11T03:30:54.006Z,0.18
2022-12-11T03:33:29.678Z,0.11
2022-12-11T03:36:01.505Z,0.20
2022-12-11T03:38:38.026Z,0.16
2022-12-11T03:41:06.729Z,0.07
2022-12-11T03:43:34.289Z,-0.09
2022-12-11T03:46:01.879Z,-0.10
2022-12-11T03:48:33.710Z,-0.06
2022-12-11T03:51:03.867Z,0.03
2022-12-11T03:53:31.433Z,-0.07
2022-12-11T03:56:00.434Z,-0.12
2022-12-11T03:58:27.561Z,-0.32
2022-12-11T04:00:54.728Z,-0.07
2022-12-11T04:03:21.857Z,-0.03
2022-12-11T04:05:51.354Z,0.02
2022-12-11T04:08:22.813Z,-0.05
2022-12-11T04:11:13.677Z,0.07
2022-12-11T04:13:41.656Z,0.11
2022-12-11T04:16:08.907Z,0.05
2022-12-11T04:18:54.596Z,0.14
2022-12-11T04:21:40.248Z,0.08
2022-12-11T04:24:16.871Z,-0.05
2022-12-11T04:26:46.512Z,-0.20
2022-12-11T04:29:14.499Z,0.00
2022-12-11T04:31:41.782Z,-0.08
2022-12-11T04:34:09.299Z,0.01
2022-12-11T04:36:36.440Z,-0.10
2022-12-11T04:39:05.428Z,-0.14
2022-12-11T04:41:34.036Z,-0.14
2022-12-11T04:44:01.210Z,-0.05
2022-12-11T04:46:28.523Z,0.05
2022-12-11T04:48:57.926Z,-0.10
2022-12-11T04:51:25.911Z,-0.14
2022-12-11T04:53:54.349Z,-0.27
2022-12-11T04:56:21.832Z,-0.09
2022-12-11T04:58:48.998Z,-0.02
2022-12-11T05:01:21.538Z,-0.05
2022-12-11T05:03:48.992Z,0.02
2022-12-11T05:06:16.162Z,-0.04
2022-12-11T05:08:43.913Z,-0.15
2022-12-11T05:11:13.514Z,-0.16
2022-12-11T05:13:41.162Z,-0.10
2022-12-11T05:16:12.823Z,0.02
2022-12-11T05:18:40.187Z,0.04
2022-12-11T05:21:11.548Z,-0.18
2022-12-11T05:23:39.511Z,-0.17
2022-12-11T05:26:09.450Z,-0.13
2022-12-11T05:28:38.264Z,-0.03
2022-12-11T05:31:08.744Z,-0.06
2022-12-11T05:33:36.077Z,-0.10
2022-12-11T05:36:03.780Z,-0.09
2022-12-11T05:38:31.007Z,-0.16
2022-12-11T05:41:06.796Z,-0.08
2022-12-11T05:43:35.942Z,-0.12
2022-12-11T05:46:14.540Z,-0.18
2022-12-11T05:48:42.641Z,-0.23
2022-12-11T05:51:11.049Z,-0.24
2022-12-11T05:53:38.967Z,-0.34
2022-12-11T05:56:12.437Z,-0.36
2022-12-11T05:58:40.639Z,-0.38
2022-12-11T06:01:10.358Z,-0.27
2022-12-11T06:03:38.116Z,-0.28
2022-12-11T06:06:06.449Z,-0.31
2022-12-11T06:08:34.482Z,-0.36
2022-12-11T06:11:01.919Z,-0.32
2022-12-11T06:13:29.063Z,-0.27
2022-12-11T06:15:59.648Z,-0.19
2022-12-11T06:18:26.885Z,-0.27
2022-12-11T06:20:54.675Z,-0.37
2022-12-11T06:23:22.122Z,-0.43
2022-12-11T06:25:49.353Z,-0.42
2022-12-11T06:28:16.799Z,-0.48
2022-12-11T06:30:45.016Z,-0.40
2022-12-11T06:33:12.189Z,-0.36
2022-12-11T06:35:42.350Z,-0.37
2022-12-11T06:38:10.878Z,-0.46
2022-12-11T06:40:38.482Z,-0.39
2022-12-11T06:43:06.044Z,-0.37
2022-12-11T06:45:33.307Z,-0.46
2022-12-11T06:48:00.518Z,-0.51
2022-12-11T06:50:27.766Z,-0.44
2022-12-11T06:52:56.727Z,-0.37
2022-12-11T06:55:23.891Z,-0.33
2022-12-11T06:57:51.102Z,-0.36
2022-12-11T07:00:18.346Z,-0.43
2022-12-11T07:02:45.582Z,-0.44
2022-12-11T07:05:13.659Z,-0.40
2022-12-11T07:07:41.044Z,-0.35
2022-12-11T07:10:09.424Z,-0.35
2022-12-11T07:12:37.441Z,-0.40
2022-12-11T07:15:06.011Z,-0.37
2022-12-11T07:17:33.222Z,-0.35
2022-12-11T07:20:00.681Z,-0.42
2022-12-11T07:22:29.018Z,-0.37
2022-12-11T07:24:56.360Z,-0.32
2022-12-11T07:27:23.899Z,-0.28
2022-12-11T07:29:51.579Z,-0.18
2022-12-11T07:32:19.093Z,-0.30
2022-12-11T07:34:51.556Z,-0.35
2022-12-11T07:37:19.406Z,-0.50
2022-12-11T07:39:46.778Z,-0.37
2022-12-11T07:42:14.191Z,-0.47
2022-12-11T07:44:41.545Z,-0.40
2022-12-11T07:47:08.977Z,-0.22
2022-12-11T07:49:36.205Z,-0.17
2022-12-11T07:52:03.504Z,-0.55
2022-12-11T07:54:30.616Z,-0.32
2022-12-11T07:56:57.770Z,-0.23
2022-12-11T07:59:25.132Z,-0.17
2022-12-11T08:01:52.336Z,-0.28
2022-12-11T08:04:19.527Z,-0.01
2022-12-11T08:06:47.937Z,-0.07
2022-12-11T08:09:21.071Z,-0.10
2022-12-11T08:11:52.076Z,-0.15
2022-12-11T08:14:19.779Z,0.06
2022-12-11T08:16:47.467Z,0.08
2022-12-11T08:19:15.250Z,0.21
2022-12-11T08:21:42.608Z,0.38
2022-12-11T08:24:10.304Z,0.12
2022-12-11T08:26:37.573Z,0.19
2022-12-11T08:29:04.778Z,-0.06
2022-12-11T08:31:33.369Z,-0.20
2022-12-11T08:34:00.679Z,-0.04
2022-12-11T08:36:27.967Z,0.15
2022-12-11T08:38:56.591Z,0.24
2022-12-11T08:41:26.564Z,0.27
2022-12-11T08:43:57.810Z,0.25
2022-12-11T08:46:30.618Z,0.36
2022-12-11T08:48:58.668Z,0.34
2022-12-11T08:51:27.365Z,0.16
2022-12-11T08:53:59.307Z,-0.02
2022-12-11T08:56:27.513Z,-0.04
2022-12-11T08:58:55.315Z,-0.05
2022-12-11T09:01:25.128Z,-0.02
2022-12-11T09:03:53.844Z,-0.10
2022-12-11T09:06:23.101Z,-0.04
2022-12-11T09:08:53.116Z,-0.16
2022-12-11T09:11:24.209Z,-0.08
2022-12-11T09:13:52.505Z,-0.05
2022-12-11T09:16:22.763Z,-0.37
2022-12-11T09:18:51.747Z,-0.28
2022-12-11T09:21:21.390Z,-0.43
2022-12-11T09:23:49.729Z,-0.43
2022-12-11T09:26:18.721Z,-0.63
2022-12-11T09:28:47.924Z,-0.22
2022-12-11T09:31:21.603Z,-0.15
2022-12-11T09:33:49.776Z,-0.08
2022-12-11T09:36:17.220Z,-0.16
2022-12-11T09:38:45.010Z,-0.23
2022-12-11T09:41:37.550Z,-0.15
2022-12-11T09:44:16.573Z,-0.03
2022-12-11T09:46:44.381Z,0.24
2022-12-11T09:49:25.445Z,0.08
2022-12-11T09:52:02.758Z,0.02
2022-12-11T09:54:30.130Z,-0.22
2022-12-11T09:57:09.241Z,0.01
2022-12-11T09:59:53.949Z,-0.21
2022-12-11T10:02:56.210Z,-0.15
2022-12-11T10:05:47.816Z,-0.24
2022-12-11T10:08:23.677Z,-0.13
2022-12-11T10:10:50.905Z,-0.32
2022-12-11T10:13:36.632Z,-0.22
2022-12-11T10:16:16.163Z,-0.27
2022-12-11T10:18:43.737Z,-0.36
2022-12-11T10:21:11.480Z,-0.54
2022-12-11T10:23:43.820Z,-0.40
2022-12-11T10:26:19.883Z,-0.38
2022-12-11T10:28:47.405Z,-0.38
2022-12-11T10:31:39.171Z,-0.36
2022-12-11T10:34:13.730Z,-0.57
2022-12-11T10:36:42.299Z,-0.27
2022-12-11T10:39:20.787Z,-0.30
2022-12-11T10:41:50.263Z,-0.25
2022-12-11T10:44:23.008Z,-0.32
2022-12-11T10:47:14.719Z,-0.54
2022-12-11T10:49:54.484Z,-0.51
2022-12-11T10:52:28.034Z,-0.16
2022-12-11T10:55:00.758Z,-0.12
2022-12-11T10:57:30.889Z,-0.18
2022-12-11T10:59:59.416Z,-0.36
2022-12-11T11:02:33.170Z,-0.27
2022-12-11T11:05:10.899Z,-0.43
2022-12-11T11:07:38.445Z,-0.70
2022-12-11T11:10:17.802Z,-0.57
2022-12-11T11:12:48.122Z,-0.72
2022-12-11T11:15:22.876Z,-0.63
2022-12-11T11:17:56.160Z,-0.55
2022-12-11T11:20:29.318Z,-0.45
2022-12-11T11:22:59.084Z,-0.49
2022-12-11T11:25:28.840Z,-0.42
2022-12-11T11:28:02.903Z,-0.45
2022-12-11T11:30:35.713Z,-0.60
2022-12-11T11:33:06.724Z,-0.74
2022-12-11T11:35:33.923Z,-0.60
2022-12-11T11:38:14.801Z,-0.76
2022-12-11T11:41:13.090Z,-0.49
2022-12-11T11:44:01.018Z,-0.55
2022-12-11T11:46:36.857Z,-0.60
2022-12-11T11:49:13.175Z,-0.41
2022-12-11T11:51:59.789Z,-0.36
2022-12-11T11:54:43.308Z,-0.35
2022-12-11T11:57:35.544Z,-0.53
2022-12-11T12:00:10.886Z,-0.84
2022-12-11T12:02:41.600Z,-0.91
2022-12-11T12:05:25.759Z,-1.07
2022-12-11T12:08:14.758Z,-0.91
2022-12-11T12:10:51.744Z,-0.85
2022-12-11T12:13:50.765Z,-1.08
2022-12-11T12:16:51.751Z,-1.10
2022-12-11T12:19:44.021Z,-1.00
2022-12-11T12:22:32.688Z,-1.19
2022-12-11T12:25:37.457Z,-1.11
2022-12-11T12:28:29.009Z,-1.15
2022-12-11T12:31:02.031Z,-1.28
2022-12-11T12:33:53.685Z,-1.05
2022-12-11T12:37:01.219Z,-0.84
2022-12-11T12:39:40.160Z,-0.91
2022-12-11T12:42:16.013Z,-0.87
2022-12-11T12:44:58.518Z,-0.76
2022-12-11T12:47:28.652Z,-0.89
2022-12-11T12:49:56.467Z,-1.12
2022-12-11T12:52:29.878Z,-0.94
2022-12-11T12:55:14.192Z,-0.98
2022-12-11T12:57:58.303Z,-1.00
2022-12-11T13:00:42.716Z,-0.88
2022-12-11T13:03:22.650Z,-0.88
2022-12-11T13:06:09.753Z,-0.92
2022-12-11T13:08:40.122Z,-0.92
2022-12-11T13:11:12.825Z,-1.11
2022-12-11T13:13:42.889Z,-1.24
2022-12-11T13:16:16.445Z,-1.16
2022-12-11T13:18:47.623Z,-1.06
2022-12-11T13:21:23.917Z,-1.18
2022-12-11T13:23:51.310Z,-1.10
2022-12-11T13:26:33.391Z,-1.10
2022-12-11T13:29:00.650Z,-0.99
2022-12-11T13:31:34.326Z,-1.02
2022-12-11T13:34:18.670Z,-1.25
2022-12-11T13:36:53.588Z,-1.39
2022-12-11T13:39:24.781Z,-1.34
2022-12-11T13:42:01.401Z,-1.32
2022-12-11T13:44:32.946Z,-1.54
2022-12-11T13:47:02.755Z,-1.35
2022-12-11T13:49:35.547Z,-1.54
2022-12-11T13:52:03.760Z,-1.56
2022-12-11T13:54:34.132Z,-1.46
2022-12-11T13:57:15.262Z,-1.83
2022-12-11T13:59:47.046Z,-1.68
2022-12-11T14:02:33.347Z,-1.84
2022-12-11T14:05:09.837Z,-1.73
2022-12-11T14:07:43.623Z,-1.67
2022-12-11T14:10:20.754Z,-1.72
2022-12-11T14:13:14.583Z,-1.76
2022-12-11T14:15:44.681Z,-1.61
2022-12-11T14:18:26.956Z,-1.69
2022-12-11T14:21:02.159Z,-1.64
2022-12-11T14:23:31.826Z,-1.50
2022-12-11T14:26:04.802Z,-1.64
2022-12-11T14:28:41.908Z,-1.87
2022-12-11T14:31:09.309Z,-2.00
2022-12-11T14:33:41.058Z,-2.14
2022-12-11T14:36:08.647Z,-2.18
2022-12-11T14:38:39.162Z,-2.17
2022-12-11T14:41:28.132Z,-2.26
2022-12-11T14:44:02.766Z,-2.14
2022-12-11T14:46:46.284Z,-2.20
2022-12-11T14:49:24.737Z,-2.18
2022-12-11T14:51:53.586Z,-2.54
2022-12-11T14:54:38.233Z,-2.56
2022-12-11T14:57:06.929Z,-2.56
2022-12-11T14:59:46.368Z,-2.57
2022-12-11T15:02:26.918Z,-2.62
2022-12-11T15:05:18.947Z,-2.74
2022-12-11T15:07:58.064Z,-2.64
2022-12-11T15:10:28.005Z,-2.58
2022-12-11T15:12:55.359Z,-2.73
2022-12-11T15:15:22.537Z,-2.75
2022-12-11T15:17:52.875Z,-2.87
2022-12-11T15:20:29.388Z,-2.83
2022-12-11T15:22:58.553Z,-2.69
2022-12-11T15:25:28.482Z,-2.91
2022-12-11T15:27:58.823Z,-2.82
2022-12-11T15:30:32.231Z,-2.75
2022-12-11T15:33:09.491Z,-2.70
2022-12-11T15:35:39.382Z,-2.75
2022-12-11T15:38:06.665Z,-2.82
2022-12-11T15:40:33.854Z,-2.79
2022-12-11T15:43:02.564Z,-2.82
2022-12-11T15:45:29.949Z,-2.56
2022-12-11T15:47:59.592Z,-2.68
2022-12-11T15:50:28.676Z,-2.61
2022-12-11T15:52:57.121Z,-2.72
2022-12-11T15:55:26.439Z,-2.49
2022-12-11T15:58:05.028Z,-2.46
2022-12-11T16:00:32.248Z,-2.46
2022-12-11T16:02:59.602Z,-2.71
2022-12-11T16:05:27.399Z,-2.58
2022-12-11T16:07:59.635Z,-2.49
2022-12-11T16:10:27.667Z,-2.56
2022-12-11T16:12:59.687Z,-2.59
2022-12-11T16:15:27.379Z,-2.74
2022-12-11T16:18:06.337Z,-2.66
2022-12-11T16:20:35.323Z,-2.73
2022-12-11T16:23:02.586Z,-2.71
2022-12-11T16:25:31.853Z,-2.56
2022-12-11T16:28:00.783Z,-2.38
2022-12-11T16:30:29.449Z,-2.38
2022-12-11T16:32:57.133Z,-2.35
2022-12-11T16:35:24.412Z,-2.60
2022-12-11T16:37:52.926Z,-2.84
2022-12-11T16:40:20.923Z,-2.75
2022-12-11T16:42:49.485Z,-2.66
2022-12-11T16:45:22.548Z,-2.55
2022-12-11T16:47:49.863Z,-2.46
2022-12-11T16:50:18.074Z,-2.52
2022-12-11T16:52:45.886Z,-2.44
2022-12-11T16:55:14.008Z,-2.77
2022-12-11T16:57:42.725Z,-2.76
2022-12-11T17:00:12.753Z,-2.86
2022-12-11T17:02:40.414Z,-2.74
2022-12-11T17:05:08.293Z,-2.85
2022-12-11T17:07:35.597Z,-2.95
2022-12-11T17:10:03.372Z,-3.18
2022-12-11T17:12:30.868Z,-3.08
2022-12-11T17:14:58.254Z,-2.99
2022-12-11T17:17:26.036Z,-2.94
2022-12-11T17:19:53.307Z,-2.70
2022-12-11T17:22:20.783Z,-2.66
2022-12-11T17:24:48.125Z,-2.75
2022-12-11T17:27:16.275Z,-2.84
2022-12-11T17:29:43.479Z,-2.91
2022-12-11T17:32:10.974Z,-2.83
2022-12-11T17:34:38.824Z,-2.73
2022-12-11T17:37:06.583Z,-2.75
2022-12-11T17:39:33.932Z,-2.63
2022-12-11T17:42:01.305Z,-2.63
2022-12-11T17:44:30.733Z,-2.78
2022-12-11T17:46:58.873Z,-2.86
2022-12-11T17:49:26.883Z,-2.84
2022-12-11T17:51:55.502Z,-2.73
2022-12-11T17:54:24.108Z,-2.83
2022-12-11T17:56:51.397Z,-2.96
2022-12-11T17:59:18.937Z,-2.90
2022-12-11T18:01:46.210Z,-2.82
2022-12-11T18:04:13.716Z,-2.98
2022-12-11T18:06:41.058Z,-3.05
2022-12-11T18:09:08.476Z,-2.85
2022-12-11T18:11:37.546Z,-2.75
2022-12-11T18:14:04.992Z,-2.86
2022-12-11T18:16:35.099Z,-2.90
2022-12-11T18:19:02.844Z,-2.73
2022-12-11T18:21:33.406Z,-2.62
2022-12-11T18:24:01.782Z,-2.81
2022-12-11T18:26:29.269Z,-2.76
2022-12-11T18:28:56.487Z,-2.96
2022-12-11T18:31:24.388Z,-2.74
2022-12-11T18:33:52.377Z,-2.85
2022-12-11T18:36:20.330Z,-2.81
2022-12-11T18:38:48.192Z,-2.88
2022-12-11T18:41:16.510Z,-2.91
2022-12-11T18:43:43.930Z,-2.82
2022-12-11T18:46:14.547Z,-2.73
2022-12-11T18:48:43.518Z,-3.12
2022-12-11T18:51:13.440Z,-2.95
2022-12-11T18:53:40.764Z,-2.84
2022-12-11T18:56:11.058Z,-2.85
2022-12-11T18:58:38.743Z,-2.85
2022-12-11T19:01:11.771Z,-2.66
2022-12-11T19:03:39.179Z,-2.81
2022-12-11T19:06:14.962Z,-2.72
2022-12-11T19:08:42.755Z,-2.57
2022-12-11T19:11:13.921Z,-2.61
2022-12-11T19:13:41.119Z,-2.62
2022-12-11T19:16:08.754Z,-2.69
2022-12-11T19:18:36.116Z,-2.66
2022-12-11T19:21:09.434Z,-2.71
2022-12-11T19:23:37.236Z,-2.73
2022-12-11T19:26:04.827Z,-2.67
2022-12-11T19:28:34.426Z,-2.79
2022-12-11T19:31:01.775Z,-2.62
2022-12-11T19:33:29.196Z,-2.55
2022-12-11T19:36:05.624Z,-2.73
2022-12-11T19:38:33.654Z,-2.57
2022-12-11T19:41:06.273Z,-2.55
2022-12-11T19:43:35.076Z,-2.69
2022-12-11T19:46:03.779Z,-2.81
2022-12-11T19:48:31.155Z,-2.76
2022-12-11T19:51:07.608Z,-2.66
2022-12-11T19:53:35.825Z,-2.88
2022-12-11T19:56:03.626Z,-2.65
2022-12-11T19:58:31.422Z,-2.78
2022-12-11T20:00:59.239Z,-2.73
2022-12-11T20:03:27.146Z,-2.66
2022-12-11T20:06:07.197Z,-2.79
2022-12-11T20:08:44.847Z,-2.88
2022-12-11T20:11:18.002Z,-3.01
2022-12-11T20:13:47.192Z,-2.97
2022-12-11T20:16:16.867Z,-2.76
2022-12-11T20:18:44.969Z,-2.84
2022-12-11T20:21:14.916Z,-2.82
2022-12-11T20:23:42.419Z,-2.92
2022-12-11T20:26:12.596Z,-2.95
2022-12-11T20:28:40.110Z,-2.74
2022-12-11T20:31:14.970Z,-2.85
2022-12-11T20:33:48.918Z,-2.86
2022-12-11T20:36:17.903Z,-2.77
2022-12-11T20:38:45.468Z,-2.70
2022-12-11T20:41:15.717Z,-2.68
2022-12-11T20:43:43.799Z,-2.81
2022-12-11T20:46:13.756Z,-2.84
2022-12-11T20:48:43.281Z,-3.11
2022-12-11T20:51:13.097Z,-3.00
2022-12-11T20:53:41.651Z,-2.77
2022-12-11T20:56:19.646Z,-3.03
2022-12-11T20:58:47.487Z,-2.91
2022-12-11T21:01:17.517Z,-2.98
2022-12-11T21:03:45.346Z,-3.01
2022-12-11T21:06:31.461Z,-2.87
2022-12-11T21:09:07.380Z,-2.94
2022-12-11T21:11:34.821Z,-3.01
2022-12-11T21:14:02.563Z,-2.96
2022-12-11T21:16:30.181Z,-2.83
2022-12-11T21:18:58.881Z,-2.98
2022-12-11T21:21:26.428Z,-2.88
2022-12-11T21:23:53.870Z,-2.92
2022-12-11T21:26:21.493Z,-3.13
2022-12-11T21:28:48.930Z,-2.95
2022-12-11T21:31:18.752Z,-3.15
2022-12-11T21:33:46.907Z,-3.17
2022-12-11T21:36:15.159Z,-3.06
2022-12-11T21:38:43.888Z,-3.10
2022-12-11T21:41:15.940Z,-2.99
2022-12-11T21:44:14.561Z,-3.20
2022-12-11T21:46:32.299Z,-3.20
2022-12-11T21:49:00.064Z,-3.34
2022-12-11T21:51:38.620Z,-3.23
2022-12-11T21:54:10.561Z,-3.10
2022-12-11T21:56:37.862Z,-3.00
2022-12-11T21:59:05.748Z,-3.07
2022-12-11T22:01:38.765Z,-3.04
2022-12-11T22:04:06.071Z,-3.01
2022-12-11T22:06:34.107Z,-3.18
2022-12-11T22:09:01.390Z,-3.01
2022-12-11T22:11:31.100Z,-3.03
2022-12-11T22:13:58.510Z,-3.14
2022-12-11T22:16:26.314Z,-3.13
2022-12-11T22:18:53.526Z,-3.12
2022-12-11T22:21:21.140Z,-3.31
2022-12-11T22:23:48.539Z,-3.35
2022-12-11T22:26:22.111Z,-3.34
2022-12-11T22:28:49.634Z,-3.20
2022-12-11T22:31:21.359Z,-3.20
2022-12-11T22:33:50.210Z,-3.18
2022-12-11T22:36:20.620Z,-3.18
2022-12-11T22:38:47.941Z,-3.37
2022-12-11T22:41:27.647Z,-3.38
2022-12-11T22:43:55.165Z,-3.50
2022-12-11T22:46:24.913Z,-3.46
2022-12-11T22:48:52.426Z,-3.55
2022-12-11T22:51:20.064Z,-3.53
2022-12-11T22:53:47.596Z,-3.22
2022-12-11T22:56:15.066Z,-3.34
2022-12-11T22:58:42.750Z,-3.33
2022-12-11T23:01:12.304Z,-3.49
2022-12-11T23:03:39.684Z,-3.36
2022-12-11T23:06:08.683Z,-3.36
2022-12-11T23:08:36.380Z,-3.47
2022-12-11T23:11:10.077Z,-3.40
2022-12-11T23:13:37.161Z,-3.41
2022-12-11T23:16:04.380Z,-3.43
2022-12-11T23:18:31.608Z,-3.23
2022-12-11T23:20:59.229Z,-3.44
2022-12-11T23:23:26.388Z,-3.21
2022-12-11T23:25:53.604Z,-3.17
2022-12-11T23:28:20.709Z,-3.22
2022-12-11T23:30:47.932Z,-3.29
2022-12-11T23:33:15.255Z,-3.24
2022-12-11T23:35:42.337Z,-3.09
2022-12-11T23:38:09.517Z,-3.09
2022-12-11T23:40:36.747Z,-3.27
2022-12-11T23:43:03.928Z,-3.31
2022-12-11T23:45:31.128Z,-3.23
2022-12-11T23:47:58.228Z,-3.43
2022-12-11T23:50:25.899Z,-3.34
2022-12-11T23:52:53.077Z,-3.30
2022-12-11T23:55:20.872Z,-3.44
2022-12-11T23:57:48.484Z,-3.48
